createdAt,value
2022-08-26T00:00:08.951Z,20.9
2022-08-26T00:01:10.970Z,20.9
2022-08-26T00:02:11.981Z,20.9
2022-08-26T00:03:13.957Z,20.9
2022-08-26T00:04:15.996Z,20.9
2022-08-26T00:05:17.011Z,20.9
2022-08-26T00:06:20.402Z,21
2022-08-26T00:07:21.000Z,21
2022-08-26T00:08:22.979Z,21
2022-08-26T00:09:25.116Z,21
2022-08-26T00:10:25.980Z,20.9
2022-08-26T00:11:27.236Z,20.9
2022-08-26T00:12:31.538Z,20.9
2022-08-26T00:13:30.971Z,20.8
2022-08-26T00:14:31.932Z,20.8
2022-08-26T00:15:33.013Z,20.8
2022-08-26T00:16:35.001Z,20.8
2022-08-26T00:17:35.991Z,20.8
2022-08-26T00:18:38.600Z,20.8
2022-08-26T00:19:38.891Z,20.8
2022-08-26T00:20:39.991Z,20.7
2022-08-26T00:21:41.981Z,20.7
2022-08-26T00:22:43.971Z,20.7
2022-08-26T00:23:45.990Z,20.7
2022-08-26T00:24:48.370Z,20.7
2022-08-26T00:25:49.951Z,20.7
2022-08-26T00:26:51.540Z,20.7
2022-08-26T00:27:52.990Z,20.7
2022-08-26T00:28:55.026Z,20.7
2022-08-26T00:29:56.991Z,20.7
2022-08-26T00:30:59.015Z,20.7
2022-08-26T00:32:01.150Z,20.7
2022-08-26T00:33:03.010Z,20.7
2022-08-26T00:34:04.971Z,20.7
2022-08-26T00:35:07.071Z,20.7
2022-08-26T00:36:08.931Z,20.6
2022-08-26T00:37:14.503Z,20.6
2022-08-26T00:38:12.952Z,20.6
2022-08-26T00:39:13.991Z,20.6
2022-08-26T00:40:16.055Z,20.7
2022-08-26T00:41:17.990Z,20.7
2022-08-26T00:42:20.013Z,20.7
2022-08-26T00:43:21.971Z,20.6
2022-08-26T00:44:23.011Z,20.6
2022-08-26T00:45:25.023Z,20.5
2022-08-26T00:46:26.999Z,20.5
2022-08-26T00:47:31.128Z,20.5
2022-08-26T00:48:31.875Z,20.5
2022-08-26T00:49:32.971Z,20.4
2022-08-26T00:50:34.035Z,20.4
2022-08-26T00:51:35.972Z,20.4
2022-08-26T00:52:36.920Z,20.4
2022-08-26T00:53:38.985Z,20.4
2022-08-26T00:54:42.346Z,20.4
2022-08-26T00:55:43.071Z,20.4
2022-08-26T00:56:44.999Z,20.3
2022-08-26T00:57:46.993Z,20.3
2022-08-26T00:58:49.031Z,20.3
2022-08-26T00:59:50.992Z,20.3
2022-08-26T01:04:01.130Z,20.3
2022-08-26T01:05:03.313Z,20.2
2022-08-26T01:06:05.073Z,20.2
2022-08-26T01:07:07.033Z,20.2
2022-08-26T01:08:08.994Z,20.2
2022-08-26T01:09:09.914Z,20.2
2022-08-26T01:10:10.997Z,20.2
2022-08-26T01:11:13.184Z,20.2
2022-08-26T01:12:15.034Z,20.2
2022-08-26T01:13:16.962Z,20.2
2022-08-26T01:14:20.118Z,20.2
2022-08-26T01:15:20.973Z,20.2
2022-08-26T01:16:23.116Z,20.2
2022-08-26T01:17:25.135Z,20.2
2022-08-26T01:18:27.114Z,20.2
2022-08-26T01:19:29.054Z,20.2
2022-08-26T01:20:30.934Z,20.2
2022-08-26T01:21:32.013Z,20.2
2022-08-26T01:22:34.042Z,20.2
2022-08-26T01:23:36.071Z,20.1
2022-08-26T01:24:38.031Z,20.1
2022-08-26T01:25:40.361Z,20.1
2022-08-26T01:26:41.958Z,20.1
2022-08-26T01:27:44.074Z,20.1
2022-08-26T01:28:46.017Z,20.1
2022-08-26T01:29:48.034Z,20.2
2022-08-26T01:30:50.002Z,20.2
2022-08-26T01:31:52.150Z,20.2
2022-08-26T01:32:54.153Z,20.2
2022-08-26T01:33:55.996Z,20.2
2022-08-26T01:34:58.098Z,20.2
2022-08-26T01:35:58.915Z,20.2
2022-08-26T01:36:59.994Z,20.2
2022-08-26T01:38:02.239Z,20.2
2022-08-26T01:39:05.816Z,20.2
2022-08-26T01:40:06.156Z,20.2
2022-08-26T01:41:11.684Z,20.2
2022-08-26T01:42:10.314Z,20.2
2022-08-26T01:43:12.154Z,20.1
2022-08-26T01:44:14.055Z,20.1
2022-08-26T01:45:15.990Z,20.1
2022-08-26T01:46:17.127Z,20
2022-08-26T01:47:19.039Z,20
2022-08-26T01:48:21.020Z,20
2022-08-26T01:49:23.015Z,20
2022-08-26T01:50:27.467Z,19.9
2022-08-26T01:51:25.992Z,19.9
2022-08-26T01:52:27.557Z,19.8
2022-08-26T01:53:29.035Z,19.8
2022-08-26T01:54:31.034Z,19.8
2022-08-26T01:55:33.256Z,19.8
2022-08-26T01:56:36.628Z,19.8
2022-08-26T01:57:36.056Z,19.9
2022-08-26T01:58:38.094Z,19.9
2022-08-26T01:59:40.241Z,19.9
2022-08-26T02:00:42.187Z,19.9
2022-08-26T02:01:44.061Z,19.9
2022-08-26T02:02:46.053Z,19.9
2022-08-26T02:03:48.035Z,19.9
2022-08-26T02:04:48.998Z,19.8
2022-08-26T02:05:51.373Z,19.8
2022-08-26T02:06:51.976Z,19.8
2022-08-26T02:07:53.155Z,19.8
2022-08-26T02:08:55.034Z,19.8
2022-08-26T02:09:57.013Z,19.8
2022-08-26T02:10:59.193Z,19.7
2022-08-26T02:12:01.033Z,19.7
2022-08-26T02:13:03.093Z,19.7
2022-08-26T02:14:05.087Z,19.8
2022-08-26T02:15:07.054Z,19.8
2022-08-26T02:16:09.207Z,19.8
2022-08-26T02:17:11.033Z,19.8
2022-08-26T02:18:14.099Z,19.8
2022-08-26T02:19:16.840Z,19.8
2022-08-26T02:20:17.053Z,19.8
2022-08-26T02:21:19.033Z,19.8
2022-08-26T02:22:20.054Z,19.8
2022-08-26T02:23:24.006Z,19.8
2022-08-26T02:24:24.074Z,19.7
2022-08-26T02:25:26.094Z,19.7
2022-08-26T02:26:28.086Z,19.7
2022-08-26T02:27:32.184Z,19.7
2022-08-26T02:28:31.015Z,19.7
2022-08-26T02:29:33.058Z,19.7
2022-08-26T02:30:35.108Z,19.7
2022-08-26T02:31:37.134Z,19.6
2022-08-26T02:32:40.133Z,19.6
2022-08-26T02:33:43.214Z,19.6
2022-08-26T02:34:43.134Z,19.6
2022-08-26T02:35:45.034Z,19.6
2022-08-26T02:36:47.094Z,19.7
2022-08-26T02:37:49.399Z,19.7
2022-08-26T02:38:49.975Z,19.7
2022-08-26T02:39:52.067Z,19.8
2022-08-26T02:40:54.157Z,19.8
2022-08-26T02:41:56.074Z,19.9
2022-08-26T02:42:57.167Z,19.9
2022-08-26T02:43:59.095Z,19.9
2022-08-26T02:45:01.094Z,19.9
2022-08-26T02:46:03.134Z,19.9
2022-08-26T02:47:05.315Z,19.9
2022-08-26T02:48:07.076Z,19.9
2022-08-26T02:49:08.972Z,19.9
2022-08-26T02:50:10.040Z,19.8
2022-08-26T02:51:11.235Z,19.8
2022-08-26T02:52:13.034Z,19.8
2022-08-26T02:53:15.058Z,19.8
2022-08-26T02:54:17.047Z,19.7
2022-08-26T02:55:19.102Z,19.7
2022-08-26T02:56:21.037Z,19.6
2022-08-26T02:57:23.174Z,19.6
2022-08-26T02:58:25.038Z,19.6
2022-08-26T02:59:27.088Z,19.6
2022-08-26T03:00:29.129Z,19.6
2022-08-26T03:01:30.201Z,19.5
2022-08-26T03:02:31.141Z,19.5
2022-08-26T03:03:33.156Z,19.5
2022-08-26T03:04:35.013Z,19.5
2022-08-26T03:05:37.035Z,19.5
2022-08-26T03:06:38.993Z,19.5
2022-08-26T03:07:41.014Z,19.6
2022-08-26T03:08:42.074Z,19.5
2022-08-26T03:09:44.016Z,19.5
2022-08-26T03:10:46.094Z,19.5
2022-08-26T03:11:48.054Z,19.5
2022-08-26T03:12:50.073Z,19.5
2022-08-26T03:13:52.115Z,19.6
2022-08-26T03:14:54.109Z,19.6
2022-08-26T03:15:56.150Z,19.6
2022-08-26T03:16:58.013Z,19.6
2022-08-26T03:18:00.155Z,19.5
2022-08-26T03:19:02.114Z,19.5
2022-08-26T03:20:04.100Z,19.5
2022-08-26T03:21:05.073Z,19.6
2022-08-26T03:22:05.975Z,19.6
2022-08-26T03:23:07.199Z,19.5
2022-08-26T03:24:09.074Z,19.6
2022-08-26T03:25:10.993Z,19.5
2022-08-26T03:26:12.999Z,19.5
2022-08-26T03:27:14.366Z,19.4
2022-08-26T03:28:16.134Z,19.4
2022-08-26T03:29:18.078Z,19.4
2022-08-26T03:30:20.093Z,19.3
2022-08-26T03:31:22.079Z,19.3
2022-08-26T03:32:23.033Z,19.2
2022-08-26T03:33:24.074Z,19.2
2022-08-26T03:34:25.134Z,19.2
2022-08-26T03:35:27.113Z,19.2
2022-08-26T03:36:28.076Z,19.2
2022-08-26T03:37:29.021Z,19.2
2022-08-26T03:38:30.033Z,19.1
2022-08-26T03:39:31.513Z,19.1
2022-08-26T03:40:33.326Z,19.1
2022-08-26T03:41:35.046Z,19.1
2022-08-26T03:42:36.175Z,19.2
2022-08-26T03:43:38.054Z,19.1
2022-08-26T03:44:41.972Z,19.2
2022-08-26T03:45:40.056Z,19.1
2022-08-26T03:46:42.213Z,19.2
2022-08-26T03:47:43.113Z,19.2
2022-08-26T03:48:44.051Z,19.2
2022-08-26T03:49:45.059Z,19.2
2022-08-26T03:50:46.174Z,19.2
2022-08-26T03:51:48.154Z,19.2
2022-08-26T03:52:50.173Z,19.2
2022-08-26T03:53:52.053Z,19.3
2022-08-26T03:54:54.053Z,19.3
2022-08-26T03:55:56.093Z,19.3
2022-08-26T03:56:58.081Z,19.3
2022-08-26T03:57:59.193Z,19.3
2022-08-26T03:59:01.053Z,19.3
2022-08-26T04:00:02.233Z,19.3
2022-08-26T04:01:04.073Z,19.3
2022-08-26T04:02:08.541Z,19.3
2022-08-26T04:03:09.848Z,19.3
2022-08-26T04:04:10.113Z,19.3
2022-08-26T04:05:12.172Z,19.2
2022-08-26T04:06:14.131Z,19.2
2022-08-26T04:07:16.202Z,19.2
2022-08-26T04:08:18.142Z,19.2
2022-08-26T04:09:20.115Z,19.3
2022-08-26T04:10:22.036Z,19.2
2022-08-26T04:11:24.115Z,19.2
2022-08-26T04:12:25.034Z,19.2
2022-08-26T04:13:26.090Z,19.2
2022-08-26T04:14:27.074Z,19.2
2022-08-26T04:15:28.094Z,19.2
2022-08-26T04:16:30.175Z,19.2
2022-08-26T04:17:32.175Z,19.2
2022-08-26T04:18:37.136Z,19.2
2022-08-26T04:19:36.093Z,19.2
2022-08-26T04:20:38.053Z,19.2
2022-08-26T04:21:39.073Z,19.2
2022-08-26T04:22:40.193Z,19.3
2022-08-26T04:23:46.912Z,19.3
2022-08-26T04:24:43.154Z,19.3
2022-08-26T04:25:44.113Z,19.3
2022-08-26T04:26:46.093Z,19.3
2022-08-26T04:27:47.113Z,19.3
2022-08-26T04:28:49.116Z,19.3
2022-08-26T04:29:53.527Z,19.4
2022-08-26T04:30:51.286Z,19.4
2022-08-26T04:31:55.285Z,19.4
2022-08-26T04:32:55.094Z,19.4
2022-08-26T04:33:57.074Z,19.5
2022-08-26T04:34:58.133Z,19.5
2022-08-26T04:36:00.122Z,19.6
2022-08-26T04:37:02.140Z,19.7
2022-08-26T04:38:04.073Z,19.7
2022-08-26T04:39:05.247Z,19.7
2022-08-26T04:40:07.209Z,19.8
2022-08-26T04:41:15.165Z,19.8
2022-08-26T04:42:11.233Z,19.8
2022-08-26T04:43:13.214Z,19.8
2022-08-26T04:44:15.175Z,19.8
2022-08-26T04:45:17.173Z,19.8
2022-08-26T04:46:19.262Z,19.8
2022-08-26T04:47:21.593Z,19.8
2022-08-26T04:48:23.155Z,19.8
2022-08-26T04:49:26.050Z,19.8
2022-08-26T04:50:27.121Z,19.8
2022-08-26T04:51:29.128Z,19.9
2022-08-26T04:52:30.073Z,19.9
2022-08-26T04:53:31.081Z,19.9
2022-08-26T04:54:33.188Z,19.9
2022-08-26T04:55:38.818Z,19.9
2022-08-26T04:56:37.174Z,19.9
2022-08-26T04:57:39.294Z,19.9
2022-08-26T04:58:41.218Z,19.9
2022-08-26T04:59:43.194Z,19.9
2022-08-26T05:00:45.173Z,19.9
2022-08-26T05:01:47.256Z,19.9
2022-08-26T05:02:49.142Z,19.9
2022-08-26T05:03:51.247Z,20
2022-08-26T05:04:53.274Z,20
2022-08-26T05:05:55.173Z,20
2022-08-26T05:07:02.240Z,20.1
2022-08-26T05:07:59.154Z,20.1
2022-08-26T05:09:01.234Z,20.1
2022-08-26T05:10:03.173Z,20.1
2022-08-26T05:11:05.157Z,20.1
2022-08-26T05:12:07.078Z,20.2
2022-08-26T05:13:10.761Z,20.2
2022-08-26T05:14:11.143Z,20.2
2022-08-26T05:15:12.194Z,20.3
2022-08-26T05:16:14.179Z,20.3
2022-08-26T05:17:16.214Z,20.3
2022-08-26T05:18:18.181Z,20.3
2022-08-26T05:19:21.039Z,20.3
2022-08-26T05:20:25.666Z,20.3
2022-08-26T05:21:24.376Z,20.4
2022-08-26T05:22:26.156Z,20.4
2022-08-26T05:23:27.116Z,20.4
2022-08-26T05:24:28.189Z,20.4
2022-08-26T05:25:30.173Z,20.5
2022-08-26T05:26:32.181Z,20.5
2022-08-26T05:27:34.173Z,20.5
2022-08-26T05:28:36.155Z,20.5
2022-08-26T05:29:37.106Z,20.5
2022-08-26T05:30:39.253Z,20.5
2022-08-26T05:31:41.146Z,20.6
2022-08-26T05:32:42.126Z,20.7
2022-08-26T05:33:43.133Z,20.7
2022-08-26T05:34:45.213Z,20.7
2022-08-26T05:35:47.157Z,20.7
2022-08-26T05:36:48.253Z,20.7
2022-08-26T05:37:50.113Z,20.8
2022-08-26T05:38:52.213Z,20.8
2022-08-26T05:39:54.280Z,20.8
2022-08-26T05:40:56.194Z,20.9
2022-08-26T05:41:57.195Z,20.9
2022-08-26T05:42:59.316Z,21
2022-08-26T05:44:01.123Z,21.1
2022-08-26T05:45:02.201Z,21.3
2022-08-26T05:46:04.221Z,21.3
2022-08-26T05:47:06.213Z,21.2
2022-08-26T05:48:08.254Z,21.2
2022-08-26T05:49:12.354Z,21.3
2022-08-26T05:50:12.241Z,21.3
2022-08-26T05:51:14.337Z,21.2
2022-08-26T05:52:16.254Z,21.2
2022-08-26T05:53:18.156Z,21.2
2022-08-26T05:54:22.155Z,21.1
2022-08-26T05:55:22.455Z,21.1
2022-08-26T05:56:24.173Z,21.1
2022-08-26T05:57:26.173Z,21
2022-08-26T05:58:28.113Z,21
2022-08-26T05:59:29.234Z,21
2022-08-26T06:00:31.193Z,21
2022-08-26T06:01:33.711Z,21.1
2022-08-26T06:02:35.201Z,21.1
2022-08-26T06:03:37.173Z,21.1
2022-08-26T06:04:39.186Z,21.1
2022-08-26T06:05:41.238Z,21.2
2022-08-26T06:06:43.573Z,21.2
2022-08-26T06:07:45.193Z,21.2
2022-08-26T06:08:47.205Z,21.3
2022-08-26T06:09:49.147Z,21.4
2022-08-26T06:10:51.213Z,21.4
2022-08-26T06:11:53.630Z,21.4
2022-08-26T06:12:55.153Z,21.4
2022-08-26T06:14:01.341Z,21.4
2022-08-26T06:14:59.208Z,21.5
2022-08-26T06:16:01.336Z,21.6
2022-08-26T06:17:03.213Z,21.7
2022-08-26T06:18:05.342Z,21.7
2022-08-26T06:19:10.354Z,21.8
2022-08-26T06:20:09.170Z,21.9
2022-08-26T06:21:11.362Z,21.9
2022-08-26T06:22:13.295Z,21.9
2022-08-26T06:23:15.313Z,21.9
2022-08-26T06:24:17.346Z,22
2022-08-26T06:25:19.614Z,22.1
2022-08-26T06:26:21.292Z,22.2
2022-08-26T06:27:23.668Z,22.2
2022-08-26T06:28:26.615Z,22.3
2022-08-26T06:29:28.541Z,22.3
2022-08-26T06:30:30.229Z,22.2
2022-08-26T06:31:32.283Z,22.2
2022-08-26T06:32:34.189Z,22.1
2022-08-26T06:33:36.253Z,22
2022-08-26T06:34:38.274Z,21.9
2022-08-26T06:35:40.196Z,22
2022-08-26T06:36:41.293Z,22
2022-08-26T06:37:43.454Z,22
2022-08-26T06:38:46.393Z,22
2022-08-26T06:39:48.682Z,22.2
2022-08-26T06:40:51.375Z,22.3
2022-08-26T06:41:53.338Z,22.5
2022-08-26T06:42:55.210Z,22.6
2022-08-26T06:43:58.934Z,22.7
2022-08-26T06:45:00.232Z,22.7
2022-08-26T06:46:02.491Z,22.8
2022-08-26T06:47:04.610Z,23
2022-08-26T06:48:07.192Z,23.2
2022-08-26T06:49:09.143Z,23.4
2022-08-26T06:50:11.242Z,23.5
2022-08-26T06:51:13.273Z,23.7
2022-08-26T06:52:16.506Z,23.9
2022-08-26T06:53:17.233Z,23.9
2022-08-26T06:54:19.700Z,23.7
2022-08-26T06:55:21.234Z,23.8
2022-08-26T06:56:23.203Z,23.9
2022-08-26T06:57:26.193Z,24
2022-08-26T06:58:29.629Z,24.2
2022-08-26T06:59:32.299Z,24.3
2022-08-26T07:00:34.831Z,24.3
2022-08-26T07:01:38.511Z,24.4
2022-08-26T07:02:41.497Z,24.4
2022-08-26T07:03:43.448Z,24.3
2022-08-26T07:04:45.253Z,24.2
2022-08-26T07:05:48.175Z,24.2
2022-08-26T07:06:50.145Z,24.3
2022-08-26T07:07:53.623Z,24.5
2022-08-26T07:08:57.736Z,24.6
2022-08-26T07:09:59.534Z,24.5
2022-08-26T07:11:04.335Z,24.5
2022-08-26T07:12:06.201Z,24.5
2022-08-26T07:13:08.522Z,24.4
2022-08-26T07:14:10.476Z,24.5
2022-08-26T07:15:13.156Z,24.5
2022-08-26T07:16:14.243Z,24.6
2022-08-26T07:17:15.264Z,24.6
2022-08-26T07:18:17.349Z,24.7
2022-08-26T07:19:29.075Z,24.8
2022-08-26T07:20:22.928Z,24.9
2022-08-26T07:21:25.658Z,24.9
2022-08-26T07:22:27.234Z,24.9
2022-08-26T07:23:30.135Z,25
2022-08-26T07:24:31.395Z,24.9
2022-08-26T07:25:33.753Z,24.9
2022-08-26T07:26:36.358Z,24.9
2022-08-26T07:27:38.533Z,24.9
2022-08-26T07:28:41.474Z,24.9
2022-08-26T07:29:43.576Z,24.9
2022-08-26T07:30:45.287Z,25
2022-08-26T07:31:47.202Z,25.1
2022-08-26T07:32:52.594Z,25.2
2022-08-26T07:33:55.990Z,25.4
2022-08-26T07:34:58.852Z,25.6
2022-08-26T07:36:01.633Z,25.7
2022-08-26T07:37:06.339Z,25.8
2022-08-26T07:38:12.566Z,25.8
2022-08-26T07:39:14.218Z,25.7
2022-08-26T07:40:16.512Z,25.6
2022-08-26T07:41:19.225Z,25.7
2022-08-26T07:42:21.919Z,25.8
2022-08-26T07:43:24.333Z,26.1
2022-08-26T07:44:27.489Z,26.2
2022-08-26T07:45:29.308Z,26.2
2022-08-26T07:46:31.253Z,26
2022-08-26T07:47:33.725Z,26
2022-08-26T07:48:36.593Z,26
2022-08-26T07:49:39.666Z,26.1
2022-08-26T07:50:49.060Z,26.1
2022-08-26T07:51:44.463Z,26.1
2022-08-26T07:52:48.666Z,26.1
2022-08-26T07:53:52.580Z,26
2022-08-26T07:54:53.413Z,25.9
2022-08-26T07:55:55.492Z,26
2022-08-26T07:56:58.260Z,26.1
2022-08-26T07:58:00.321Z,26
2022-08-26T07:59:02.393Z,25.7
2022-08-26T08:00:05.157Z,25.4
2022-08-26T08:01:07.485Z,25.3
2022-08-26T08:02:10.234Z,25.3
2022-08-26T08:03:12.616Z,25.3
2022-08-26T08:04:15.714Z,25.2
2022-08-26T08:05:18.638Z,25.1
2022-08-26T08:06:21.241Z,25.1
2022-08-26T08:07:25.934Z,24.9
2022-08-26T08:08:27.490Z,25.2
2022-08-26T08:09:28.398Z,25.3
2022-08-26T08:10:30.474Z,25.5
2022-08-26T08:11:33.254Z,25.7
2022-08-26T08:12:35.221Z,25.8
2022-08-26T08:13:37.493Z,25.9
2022-08-26T08:14:40.535Z,25.9
2022-08-26T08:15:42.295Z,25.8
2022-08-26T08:16:45.790Z,25.7
2022-08-26T08:17:45.629Z,25.6
2022-08-26T08:18:48.714Z,25.7
2022-08-26T08:19:51.241Z,25.7
2022-08-26T08:20:59.352Z,25.8
2022-08-26T08:21:55.273Z,25.7
2022-08-26T08:22:57.375Z,25.7
2022-08-26T08:23:59.249Z,25.8
2022-08-26T08:25:01.253Z,25.8
2022-08-26T08:26:04.114Z,26
2022-08-26T08:27:06.562Z,26.1
2022-08-26T08:28:08.705Z,26.2
2022-08-26T08:29:10.545Z,26.4
2022-08-26T08:30:14.242Z,26.4
2022-08-26T08:31:19.081Z,26.4
2022-08-26T08:32:20.858Z,26.5
2022-08-26T08:33:24.599Z,26.4
2022-08-26T08:34:26.298Z,26.5
2022-08-26T08:35:28.405Z,26.6
2022-08-26T08:36:32.220Z,26.5
2022-08-26T08:37:32.295Z,26.6
2022-08-26T08:38:33.394Z,26.7
2022-08-26T08:39:35.753Z,26.6
2022-08-26T08:40:37.516Z,26.6
2022-08-26T08:41:40.594Z,26.6
2022-08-26T08:42:42.402Z,26.7
2022-08-26T08:43:43.275Z,26.7
2022-08-26T08:44:51.843Z,26.6
2022-08-26T08:45:49.542Z,26.5
2022-08-26T08:46:50.234Z,26.5
2022-08-26T08:47:54.131Z,26.5
2022-08-26T08:48:54.354Z,26.5
2022-08-26T08:49:57.359Z,26.5
2022-08-26T08:50:59.314Z,26.4
2022-08-26T08:52:01.253Z,26.4
2022-08-26T08:53:03.393Z,26.4
2022-08-26T08:54:05.333Z,26.6
2022-08-26T08:55:09.502Z,26.7
2022-08-26T08:56:09.733Z,26.9
2022-08-26T08:57:11.413Z,27.1
2022-08-26T08:58:13.413Z,27.3
2022-08-26T08:59:15.331Z,27.5
2022-08-26T09:00:17.441Z,27.6
2022-08-26T09:01:19.608Z,27.7
2022-08-26T09:02:22.413Z,27.7
2022-08-26T09:03:24.294Z,27.8
2022-08-26T09:04:26.424Z,27.9
2022-08-26T09:05:28.374Z,27.8
2022-08-26T09:06:30.314Z,27.5
2022-08-26T09:07:34.582Z,27.3
2022-08-26T09:08:34.246Z,27.1
2022-08-26T09:09:36.337Z,26.8
2022-08-26T09:10:38.295Z,26.8
2022-08-26T09:11:40.414Z,26.8
2022-08-26T09:12:42.374Z,26.8
2022-08-26T09:13:44.414Z,26.8
2022-08-26T09:14:46.312Z,26.8
2022-08-26T09:15:48.258Z,26.9
2022-08-26T09:16:49.324Z,26.9
2022-08-26T09:17:50.367Z,26.9
2022-08-26T09:18:52.373Z,27
2022-08-26T09:19:54.374Z,27.1
2022-08-26T09:20:56.298Z,27.3
2022-08-26T09:21:57.349Z,27.2
2022-08-26T09:22:59.374Z,27.1
2022-08-26T09:24:01.495Z,27.2
2022-08-26T09:25:03.414Z,27.1
2022-08-26T09:26:05.373Z,27.2
2022-08-26T09:27:07.476Z,27.3
2022-08-26T09:28:11.117Z,27.3
2022-08-26T09:29:13.964Z,27.4
2022-08-26T09:30:16.393Z,27.5
2022-08-26T09:31:18.687Z,27.5
2022-08-26T09:32:21.719Z,27.6
2022-08-26T09:33:23.273Z,27.8
2022-08-26T09:34:25.413Z,28.1
2022-08-26T09:35:27.254Z,28.3
2022-08-26T09:36:29.294Z,28.4
2022-08-26T09:37:31.346Z,28.6
2022-08-26T09:38:33.314Z,28.7
2022-08-26T09:39:36.344Z,28.9
2022-08-26T09:40:38.521Z,29.1
2022-08-26T09:41:40.274Z,29.1
2022-08-26T09:42:41.396Z,29.1
2022-08-26T09:43:43.475Z,29.1
2022-08-26T09:44:45.413Z,29.1
2022-08-26T09:45:50.584Z,29.2
2022-08-26T09:46:49.435Z,29.1
2022-08-26T09:47:51.356Z,29
2022-08-26T09:48:53.541Z,28.8
2022-08-26T09:49:55.494Z,28.7
2022-08-26T09:50:57.493Z,28.8
2022-08-26T09:51:59.514Z,28.9
2022-08-26T09:53:01.815Z,29.1
2022-08-26T09:54:03.573Z,29.4
2022-08-26T09:55:05.573Z,29.6
2022-08-26T09:56:07.433Z,29.8
2022-08-26T09:57:09.327Z,30
2022-08-26T09:58:11.411Z,30.2
2022-08-26T09:59:13.374Z,30.3
2022-08-26T10:00:15.392Z,30.2
2022-08-26T10:01:17.403Z,30.1
2022-08-26T10:02:19.302Z,29.6
2022-08-26T10:03:21.353Z,29.1
2022-08-26T10:04:23.891Z,28.9
2022-08-26T10:05:25.313Z,28.7
2022-08-26T10:06:27.273Z,28.6
2022-08-26T10:07:29.354Z,28.6
2022-08-26T10:08:31.316Z,28.8
2022-08-26T10:09:33.422Z,28.9
2022-08-26T10:10:35.353Z,28.8
2022-08-26T10:11:37.313Z,28.9
2022-08-26T10:12:39.257Z,29
2022-08-26T10:13:41.373Z,29
2022-08-26T10:15:48.655Z,29.3
2022-08-26T10:16:47.434Z,29.4
2022-08-26T10:17:49.344Z,29.3
2022-08-26T10:18:51.395Z,29.2
2022-08-26T10:19:56.372Z,29.2
2022-08-26T10:20:55.353Z,29.1
2022-08-26T10:21:57.433Z,29
2022-08-26T10:22:59.273Z,29
2022-08-26T10:24:00.473Z,29
2022-08-26T10:25:02.693Z,28.9
2022-08-26T10:26:04.413Z,28.9
2022-08-26T10:27:06.376Z,28.8
2022-08-26T10:28:08.603Z,28.9
2022-08-26T10:29:10.499Z,29
2022-08-26T10:30:12.340Z,29
2022-08-26T10:31:14.373Z,28.9
2022-08-26T10:32:16.560Z,29
2022-08-26T10:33:18.359Z,29.1
2022-08-26T10:34:21.070Z,29.2
2022-08-26T10:35:22.380Z,29.5
2022-08-26T10:36:24.314Z,29.7
2022-08-26T10:37:26.314Z,29.9
2022-08-26T10:38:28.717Z,30
2022-08-26T10:39:29.308Z,29.8
2022-08-26T10:40:31.408Z,29.6
2022-08-26T10:41:33.333Z,29.5
2022-08-26T10:42:35.371Z,29.4
2022-08-26T10:43:36.335Z,29.2
2022-08-26T10:44:38.934Z,29.1
2022-08-26T10:45:41.102Z,29.2
2022-08-26T10:46:42.551Z,29.3
2022-08-26T10:47:44.445Z,29.5
2022-08-26T10:48:46.444Z,29.6
2022-08-26T10:49:48.394Z,29.6
2022-08-26T10:50:49.374Z,29.6
2022-08-26T10:51:51.419Z,29.4
2022-08-26T10:52:53.344Z,29.3
2022-08-26T10:53:55.379Z,29.1
2022-08-26T10:54:57.455Z,29
2022-08-26T10:55:59.415Z,28.8
2022-08-26T10:57:01.357Z,28.7
2022-08-26T10:58:04.605Z,28.8
2022-08-26T10:59:07.002Z,28.9
2022-08-26T11:00:08.456Z,29
2022-08-26T11:01:10.813Z,29.1
2022-08-26T11:02:12.403Z,29.2
2022-08-26T11:03:22.135Z,29.3
2022-08-26T11:04:15.340Z,29.5
2022-08-26T11:05:17.458Z,29.7
2022-08-26T11:06:19.316Z,29.7
2022-08-26T11:07:21.493Z,29.8
2022-08-26T11:08:23.454Z,29.9
2022-08-26T11:09:28.768Z,30.1
2022-08-26T11:10:27.593Z,30.3
2022-08-26T11:11:29.351Z,30.2
2022-08-26T11:12:31.561Z,30.2
2022-08-26T11:13:33.374Z,30.2
2022-08-26T11:14:40.682Z,30.3
2022-08-26T11:15:38.497Z,30.3
2022-08-26T11:16:43.003Z,30.1
2022-08-26T11:17:42.532Z,29.9
2022-08-26T11:18:44.518Z,29.8
2022-08-26T11:20:00.049Z,29.7
2022-08-26T11:20:48.360Z,29.8
2022-08-26T11:21:50.627Z,29.8
2022-08-26T11:22:52.613Z,29.7
2022-08-26T11:23:54.438Z,29.7
2022-08-26T11:24:56.528Z,29.6
2022-08-26T11:25:58.734Z,29.5
2022-08-26T11:27:00.458Z,29.6
2022-08-26T11:28:02.495Z,29.6
2022-08-26T11:29:04.441Z,29.7
2022-08-26T11:30:07.328Z,29.5
2022-08-26T11:31:09.476Z,29.3
2022-08-26T11:32:11.475Z,29.2
2022-08-26T11:33:13.251Z,29.3
2022-08-26T11:34:14.674Z,29.5
2022-08-26T11:35:16.455Z,29.8
2022-08-26T11:36:18.724Z,30.1
2022-08-26T11:38:22.415Z,30.2
2022-08-26T11:39:24.753Z,30.1
2022-08-26T11:40:26.488Z,30.1
2022-08-26T11:41:30.396Z,30.1
2022-08-26T11:42:32.539Z,30.1
2022-08-26T11:43:34.587Z,30.1
2022-08-26T11:44:36.830Z,30.3
2022-08-26T11:45:38.649Z,30.4
2022-08-26T11:46:40.518Z,30.3
2022-08-26T11:47:42.455Z,30.1
2022-08-26T11:48:44.399Z,29.9
2022-08-26T11:49:46.375Z,30
2022-08-26T11:50:48.397Z,30
2022-08-26T11:51:50.574Z,30.1
2022-08-26T11:52:52.371Z,30.1
2022-08-26T11:53:54.434Z,30.1
2022-08-26T11:54:56.394Z,30.2
2022-08-26T11:55:58.455Z,30.1
2022-08-26T11:57:02.884Z,29.9
2022-08-26T11:58:02.424Z,29.7
2022-08-26T11:59:04.514Z,29.6
2022-08-26T12:00:07.383Z,29.4
2022-08-26T12:01:09.716Z,29.5
2022-08-26T12:02:10.755Z,29.6
2022-08-26T12:03:12.773Z,29.4
2022-08-26T12:04:14.780Z,29.4
2022-08-26T12:05:16.388Z,29.5
2022-08-26T12:06:19.169Z,29.4
2022-08-26T12:07:23.910Z,29.4
2022-08-26T12:08:22.573Z,29.3
2022-08-26T12:09:25.020Z,29.5
2022-08-26T12:10:29.472Z,29.9
2022-08-26T12:11:30.673Z,30.1
2022-08-26T12:12:34.903Z,30.3
2022-08-26T12:13:34.566Z,30.4
2022-08-26T12:14:37.554Z,30.4
2022-08-26T12:15:39.362Z,30.4
2022-08-26T12:16:40.517Z,30.2
2022-08-26T12:17:43.494Z,30.1
2022-08-26T12:18:45.478Z,30.1
2022-08-26T12:19:47.514Z,30.2
2022-08-26T12:20:50.427Z,30.2
2022-08-26T12:21:52.506Z,30.2
2022-08-26T12:22:54.433Z,30.2
2022-08-26T12:23:56.477Z,30
2022-08-26T12:24:58.357Z,29.9
2022-08-26T12:25:59.893Z,29.9
2022-08-26T12:27:08.694Z,29.8
2022-08-26T12:28:10.525Z,29.6
2022-08-26T12:29:19.977Z,29.4
2022-08-26T12:30:18.080Z,29.2
2022-08-26T12:31:19.820Z,29.1
2022-08-26T12:32:21.400Z,29.2
2022-08-26T12:33:23.743Z,29.2
2022-08-26T12:34:26.491Z,29.3
2022-08-26T12:35:28.422Z,29.4
2022-08-26T12:36:30.441Z,29.6
2022-08-26T12:37:32.590Z,29.7
2022-08-26T12:38:34.370Z,29.8
2022-08-26T12:39:35.623Z,29.9
2022-08-26T12:40:37.517Z,30
2022-08-26T12:41:39.580Z,30.2
2022-08-26T12:42:42.670Z,30.3
2022-08-26T12:43:46.547Z,30.3
2022-08-26T12:44:53.584Z,30.1
2022-08-26T12:45:50.460Z,29.9
2022-08-26T12:46:52.646Z,29.7
2022-08-26T12:47:54.544Z,29.7
2022-08-26T12:48:56.619Z,29.8
2022-08-26T12:49:58.725Z,29.7
2022-08-26T12:51:00.960Z,29.9
2022-08-26T12:52:03.612Z,30.1
2022-08-26T12:53:06.030Z,30.2
2022-08-26T12:54:08.534Z,30.2
2022-08-26T12:55:10.617Z,30.4
2022-08-26T12:56:13.941Z,30.6
2022-08-26T12:57:15.470Z,30.7
2022-08-26T12:58:17.480Z,30.7
2022-08-26T12:59:19.722Z,30.8
2022-08-26T13:00:21.526Z,30.8
2022-08-26T13:01:23.795Z,30.5
2022-08-26T13:02:25.682Z,30.2
2022-08-26T13:03:27.721Z,30.5
2022-08-26T13:04:29.717Z,30.4
2022-08-26T13:05:31.589Z,30.6
2022-08-26T13:06:33.543Z,30.6
2022-08-26T13:07:35.544Z,30.7
2022-08-26T13:08:37.641Z,30.7
2022-08-26T13:09:39.523Z,30.9
2022-08-26T13:10:41.963Z,30.9
2022-08-26T13:11:44.501Z,31
2022-08-26T13:12:46.496Z,31.1
2022-08-26T13:13:49.268Z,31.1
2022-08-26T13:14:51.840Z,31
2022-08-26T13:15:54.126Z,31
2022-08-26T13:16:56.674Z,31.1
2022-08-26T13:17:58.494Z,31.2
2022-08-26T13:19:00.842Z,31.5
2022-08-26T13:20:04.411Z,31.6
2022-08-26T13:21:05.860Z,31.4
2022-08-26T13:22:08.734Z,31.2
2022-08-26T13:23:11.891Z,31.2
2022-08-26T13:24:14.681Z,31
2022-08-26T13:25:19.580Z,30.9
2022-08-26T13:26:23.574Z,30.9
2022-08-26T13:27:25.562Z,30.8
2022-08-26T13:28:27.482Z,30.7
2022-08-26T13:29:29.890Z,30.8
2022-08-26T13:30:31.570Z,30.8
2022-08-26T13:31:33.570Z,30.8
2022-08-26T13:32:35.464Z,30.9
2022-08-26T13:33:37.664Z,31
2022-08-26T13:34:39.701Z,31.1
2022-08-26T13:35:41.722Z,30.9
2022-08-26T13:36:43.638Z,30.8
2022-08-26T13:37:45.442Z,30.7
2022-08-26T13:38:51.812Z,30.7
2022-08-26T13:39:49.673Z,30.8
2022-08-26T13:40:52.761Z,31
2022-08-26T13:41:54.749Z,31.1
2022-08-26T13:42:56.701Z,31.3
2022-08-26T13:43:58.858Z,31.3
2022-08-26T13:45:01.221Z,31.2
2022-08-26T13:46:02.763Z,31
2022-08-26T13:47:06.186Z,30.9
2022-08-26T13:48:07.784Z,30.8
2022-08-26T13:49:09.561Z,30.9
2022-08-26T13:50:11.941Z,31
2022-08-26T13:51:15.448Z,31
2022-08-26T13:52:17.661Z,31.1
2022-08-26T13:53:19.423Z,31
2022-08-26T13:54:21.543Z,30.9